createdAt,value
2023-03-18T00:02:06.878Z,96.71
2023-03-18T00:04:35.532Z,96.82
2023-03-18T00:07:04.355Z,96.89
2023-03-18T00:09:33.010Z,97.00
2023-03-18T00:12:01.631Z,97.05
2023-03-18T00:14:29.942Z,97.07
2023-03-18T00:16:58.601Z,97.12
2023-03-18T00:19:28.166Z,97.05
2023-03-18T00:21:57.618Z,96.95
2023-03-18T00:24:27.776Z,96.98
2023-03-18T00:26:57.142Z,97.20
2023-03-18T00:29:26.066Z,97.30
2023-03-18T00:31:54.597Z,97.36
2023-03-18T00:34:23.115Z,97.35
2023-03-18T00:36:56.928Z,97.42
2023-03-18T00:39:28.797Z,97.46
2023-03-18T00:41:58.206Z,97.39
2023-03-18T00:44:27.303Z,97.55
2023-03-18T00:46:55.876Z,97.72
2023-03-18T00:49:24.966Z,97.47
2023-03-18T00:51:54.545Z,97.76
2023-03-18T00:54:24.729Z,97.42
2023-03-18T00:56:53.957Z,97.53
2023-03-18T00:59:22.540Z,97.68
2023-03-18T01:01:51.901Z,97.58
2023-03-18T01:04:21.449Z,97.91
2023-03-18T01:06:49.965Z,97.94
2023-03-18T01:09:19.756Z,97.71
2023-03-18T01:11:48.242Z,97.72
2023-03-18T01:14:16.891Z,97.94
2023-03-18T01:16:46.881Z,97.87
2023-03-18T01:19:15.994Z,97.86
2023-03-18T01:21:44.877Z,98.00
2023-03-18T01:24:13.518Z,98.18
2023-03-18T01:26:43.066Z,98.26
2023-03-18T01:29:12.446Z,98.46
2023-03-18T01:31:41.016Z,98.68
2023-03-18T01:34:16.412Z,98.69
2023-03-18T01:36:49.781Z,98.86
2023-03-18T01:39:19.189Z,98.89
2023-03-18T01:41:48.785Z,98.94
2023-03-18T01:44:24.696Z,99.46
2023-03-18T01:46:56.827Z,99.17
2023-03-18T01:49:32.490Z,99.12
2023-03-18T01:52:07.641Z,99.23
2023-03-18T01:54:44.574Z,99.19
2023-03-18T01:57:17.340Z,98.99
2023-03-18T01:59:49.637Z,98.94
2023-03-18T02:02:18.936Z,99.13
2023-03-18T02:04:51.101Z,98.84
2023-03-18T02:07:24.283Z,99.02
2023-03-18T02:09:54.185Z,99.07
2023-03-18T02:12:28.643Z,99.11
2023-03-18T02:15:02.549Z,99.12
2023-03-18T02:17:35.348Z,99.02
2023-03-18T02:20:22.424Z,99.26
2023-03-18T02:22:57.605Z,99.37
2023-03-18T02:25:40.291Z,99.44
2023-03-18T02:28:14.734Z,99.30
2023-03-18T02:30:47.485Z,99.36
2023-03-18T02:33:19.282Z,99.50
2023-03-18T02:35:54.744Z,99.39
2023-03-18T02:38:23.440Z,99.68
2023-03-18T02:40:52.346Z,99.26
2023-03-18T02:43:28.940Z,98.99
2023-03-18T02:46:13.889Z,99.03
2023-03-18T02:48:47.330Z,98.73
2023-03-18T02:51:17.703Z,98.39
2023-03-18T02:53:47.748Z,98.35
2023-03-18T02:56:16.347Z,98.70
2023-03-18T02:58:47.325Z,98.76
2023-03-18T03:01:17.467Z,98.91
2023-03-18T03:03:46.066Z,98.92
2023-03-18T03:06:15.801Z,99.04
2023-03-18T03:08:45.063Z,99.16
2023-03-18T03:11:14.145Z,99.03
2023-03-18T03:13:45.364Z,98.99
2023-03-18T03:16:18.552Z,98.95
2023-03-18T03:18:47.240Z,98.81
2023-03-18T03:21:16.966Z,98.71
2023-03-18T03:23:47.692Z,98.55
2023-03-18T03:26:16.916Z,98.61
2023-03-18T03:28:45.923Z,98.70
2023-03-18T03:31:17.300Z,98.81
2023-03-18T03:33:45.967Z,99.01
2023-03-18T03:36:16.973Z,99.14
2023-03-18T03:38:45.902Z,99.09
2023-03-18T03:41:15.808Z,98.94
2023-03-18T03:43:44.703Z,98.97
2023-03-18T03:46:13.325Z,98.91
2023-03-18T03:48:43.183Z,98.97
2023-03-18T03:51:15.816Z,99.07
2023-03-18T03:53:46.150Z,99.09
2023-03-18T03:56:15.669Z,99.35
2023-03-18T03:58:44.754Z,99.45
2023-03-18T04:01:13.589Z,99.60
2023-03-18T04:03:43.559Z,99.57
2023-03-18T04:06:13.196Z,99.58
2023-03-18T04:08:48.232Z,99.76
2023-03-18T04:11:17.159Z,99.63
2023-03-18T04:13:45.687Z,99.74
2023-03-18T04:16:14.684Z,99.59
2023-03-18T04:18:44.382Z,99.84
2023-03-18T04:21:13.118Z,99.79
2023-03-18T04:23:46.552Z,99.90
2023-03-18T04:26:15.115Z,99.87
2023-03-18T04:28:43.839Z,99.65
2023-03-18T04:31:16.658Z,99.69
2023-03-18T04:33:46.388Z,99.41
2023-03-18T04:36:15.515Z,99.44
2023-03-18T04:38:44.596Z,99.35
2023-03-18T04:41:13.093Z,99.30
2023-03-18T04:43:41.550Z,98.98
2023-03-18T04:46:12.026Z,98.91
2023-03-18T04:48:41.041Z,98.71
2023-03-18T04:51:12.572Z,98.83
2023-03-18T04:53:42.037Z,98.79
2023-03-18T04:56:11.743Z,98.73
2023-03-18T04:58:47.962Z,98.68
2023-03-18T05:01:21.116Z,98.63
2023-03-18T05:03:50.295Z,98.26
2023-03-18T05:06:27.684Z,98.25
2023-03-18T05:09:00.075Z,98.35
2023-03-18T05:11:33.623Z,98.18
2023-03-18T05:14:09.348Z,97.76
2023-03-18T05:16:45.982Z,97.71
2023-03-18T05:19:15.771Z,97.63
2023-03-18T05:21:52.797Z,97.65
2023-03-18T05:24:21.985Z,97.38
2023-03-18T05:26:50.526Z,97.36
2023-03-18T05:29:21.928Z,97.06
2023-03-18T05:32:00.328Z,96.82
2023-03-18T05:34:31.354Z,97.08
2023-03-18T05:37:02.079Z,96.98
2023-03-18T05:39:31.472Z,96.97
2023-03-18T05:42:00.152Z,96.93
2023-03-18T05:44:30.738Z,96.90
2023-03-18T05:47:02.716Z,97.20
2023-03-18T05:49:57.303Z,97.40
2023-03-18T05:52:28.328Z,97.41
2023-03-18T05:55:01.561Z,97.22
2023-03-18T05:57:34.680Z,97.17
2023-03-18T06:00:08.188Z,97.16
2023-03-18T06:02:47.336Z,97.15
2023-03-18T06:05:18.400Z,96.67
2023-03-18T06:07:49.485Z,96.57
2023-03-18T06:10:18.351Z,96.68
2023-03-18T06:12:49.253Z,96.30
2023-03-18T06:15:21.202Z,95.80
2023-03-18T06:17:50.476Z,96.31
2023-03-18T06:20:19.716Z,95.78
2023-03-18T06:22:50.167Z,95.50
2023-03-18T06:25:21.136Z,94.95
2023-03-18T06:27:50.972Z,94.89
2023-03-18T06:30:22.422Z,94.37
2023-03-18T06:32:51.651Z,93.90
2023-03-18T06:35:20.552Z,93.65
2023-03-18T06:37:50.196Z,93.58
2023-03-18T06:40:18.733Z,93.42
2023-03-18T06:42:48.921Z,93.15
2023-03-18T06:45:28.363Z,93.53
2023-03-18T06:48:05.752Z,93.63
2023-03-18T06:50:37.045Z,93.62
2023-03-18T06:53:07.402Z,93.46
2023-03-18T06:55:36.922Z,93.85
2023-03-18T06:58:06.571Z,93.80
2023-03-18T07:00:45.446Z,93.55
2023-03-18T07:03:19.732Z,93.60
2023-03-18T07:05:48.674Z,93.60
2023-03-18T07:08:18.334Z,93.57
2023-03-18T07:10:47.143Z,93.51
2023-03-18T07:13:17.304Z,93.73
2023-03-18T07:15:46.495Z,93.78
2023-03-18T07:18:15.115Z,93.64
2023-03-18T07:20:43.829Z,93.29
2023-03-18T07:23:12.364Z,92.12
2023-03-18T07:25:44.638Z,90.37
2023-03-18T07:28:13.211Z,88.77
2023-03-18T07:30:41.741Z,87.02
2023-03-18T07:33:10.383Z,86.48
2023-03-18T07:35:41.015Z,86.02
2023-03-18T07:38:10.461Z,84.78
2023-03-18T07:40:38.935Z,85.11
2023-03-18T07:43:09.177Z,85.33
2023-03-18T07:45:38.243Z,85.56
2023-03-18T07:48:07.619Z,85.10
2023-03-18T07:50:36.409Z,84.42
2023-03-18T07:53:04.621Z,83.79
2023-03-18T07:55:34.566Z,83.42
2023-03-18T07:58:04.610Z,82.70
2023-03-18T08:00:34.228Z,82.06
2023-03-18T08:03:03.861Z,81.43
2023-03-18T08:05:34.245Z,81.56
2023-03-18T08:08:04.371Z,82.24
2023-03-18T08:10:32.889Z,82.53
2023-03-18T08:13:01.263Z,82.71
2023-03-18T08:15:30.210Z,81.06
2023-03-18T08:18:00.048Z,79.77
2023-03-18T08:20:28.781Z,79.04
2023-03-18T08:22:57.148Z,77.91
2023-03-18T08:25:25.682Z,77.05
2023-03-18T08:27:54.288Z,74.31
2023-03-18T08:30:25.474Z,72.62
2023-03-18T08:32:54.105Z,70.67
2023-03-18T08:35:23.671Z,69.70
2023-03-18T08:37:52.456Z,68.75
2023-03-18T08:40:20.946Z,68.20
2023-03-18T08:42:49.658Z,68.23
2023-03-18T08:45:18.101Z,67.81
2023-03-18T08:47:47.148Z,67.34
2023-03-18T08:50:15.723Z,67.47
2023-03-18T08:52:46.075Z,67.85
2023-03-18T08:55:14.319Z,66.51
2023-03-18T08:57:42.932Z,66.46
2023-03-18T09:00:13.401Z,64.99
2023-03-18T09:02:41.654Z,63.92
2023-03-18T09:05:10.492Z,63.71
2023-03-18T09:07:39.003Z,64.69
2023-03-18T09:10:10.273Z,63.71
2023-03-18T09:12:38.801Z,62.82
2023-03-18T09:15:10.027Z,61.87
2023-03-18T09:17:56.474Z,62.21
2023-03-18T09:20:28.926Z,62.00
2023-03-18T09:22:57.577Z,61.14
2023-03-18T09:25:27.865Z,60.73
2023-03-18T09:27:56.515Z,61.30
2023-03-18T09:30:26.703Z,62.08
2023-03-18T09:32:56.521Z,61.67
2023-03-18T09:35:25.292Z,60.88
2023-03-18T09:37:53.866Z,59.39
2023-03-18T09:40:29.417Z,61.20
2023-03-18T09:43:13.487Z,61.98
2023-03-18T09:45:57.150Z,61.96
2023-03-18T09:48:55.684Z,64.17
2023-03-18T09:51:41.883Z,64.36
2023-03-18T09:54:17.481Z,63.91
2023-03-18T09:56:48.334Z,62.94
2023-03-18T09:59:25.442Z,63.64
2023-03-18T10:01:56.665Z,61.15
2023-03-18T10:04:30.778Z,61.42
2023-03-18T10:07:05.289Z,61.41
2023-03-18T10:09:42.625Z,60.71
2023-03-18T10:12:22.677Z,60.40
2023-03-18T10:15:05.287Z,60.00
2023-03-18T10:17:40.033Z,58.84
2023-03-18T10:20:16.890Z,62.77
2023-03-18T10:23:12.826Z,61.20
2023-03-18T10:25:48.562Z,60.24
2023-03-18T10:28:49.163Z,61.93
2023-03-18T10:31:34.211Z,60.34
2023-03-18T10:34:06.435Z,62.62
2023-03-18T10:36:50.944Z,60.09
2023-03-18T10:39:23.893Z,59.73
2023-03-18T10:41:55.005Z,58.71
2023-03-18T10:44:30.485Z,59.53
2023-03-18T10:47:03.130Z,58.65
2023-03-18T10:49:36.506Z,58.98
2023-03-18T10:52:15.271Z,58.14
2023-03-18T10:54:50.874Z,57.29
2023-03-18T10:57:21.460Z,56.63
2023-03-18T10:59:52.706Z,56.63
2023-03-18T11:02:27.620Z,55.62
2023-03-18T11:05:00.816Z,55.69
2023-03-18T11:07:31.189Z,55.71
2023-03-18T11:10:15.065Z,56.08
2023-03-18T11:12:44.754Z,53.81
2023-03-18T11:15:14.658Z,53.37
2023-03-18T11:17:44.044Z,53.69
2023-03-18T11:20:24.630Z,54.11
2023-03-18T11:22:57.444Z,52.68
2023-03-18T11:25:29.189Z,52.86
2023-03-18T11:28:03.658Z,52.40
2023-03-18T11:30:46.088Z,52.55
2023-03-18T11:33:17.360Z,51.60
2023-03-18T11:35:48.295Z,51.51
2023-03-18T11:38:20.886Z,50.66
2023-03-18T11:40:49.897Z,50.47
2023-03-18T11:43:22.215Z,50.04
2023-03-18T11:45:58.713Z,51.04
2023-03-18T11:48:35.650Z,50.73
2023-03-18T11:51:29.177Z,50.73
2023-03-18T11:54:20.232Z,50.82
2023-03-18T11:56:52.607Z,49.89
2023-03-18T11:59:33.939Z,50.57
2023-03-18T12:02:48.357Z,53.08
2023-03-18T12:05:53.327Z,52.54
2023-03-18T12:08:33.966Z,51.09
2023-03-18T12:11:12.885Z,50.94
2023-03-18T12:13:55.519Z,52.22
2023-03-18T12:16:48.694Z,52.41
2023-03-18T12:19:55.081Z,54.00
2023-03-18T12:23:13.620Z,54.00
2023-03-18T12:26:01.862Z,52.47
2023-03-18T12:28:43.016Z,51.75
2023-03-18T12:31:46.637Z,52.16
2023-03-18T12:34:31.854Z,52.18
2023-03-18T12:37:22.336Z,52.51
2023-03-18T12:40:31.134Z,53.35
2023-03-18T12:43:46.464Z,52.81
2023-03-18T12:46:27.173Z,51.56
2023-03-18T12:49:03.740Z,50.94
2023-03-18T12:51:41.933Z,50.92
2023-03-18T12:54:20.561Z,51.00
2023-03-18T12:56:53.876Z,51.13
2023-03-18T12:59:32.548Z,50.48
2023-03-18T13:02:37.218Z,52.10
2023-03-18T13:05:16.795Z,50.05
2023-03-18T13:07:50.629Z,49.87
2023-03-18T13:10:24.308Z,50.42
2023-03-18T13:12:56.446Z,49.61
2023-03-18T13:15:32.819Z,50.25
2023-03-18T13:18:14.639Z,50.46
2023-03-18T13:20:44.814Z,49.64
2023-03-18T13:23:53.388Z,51.22
2023-03-18T13:26:35.377Z,50.15
2023-03-18T13:29:19.894Z,50.67
2023-03-18T13:31:58.804Z,49.83
2023-03-18T13:34:57.586Z,50.07
2023-03-18T13:37:54.634Z,48.93
2023-03-18T13:40:42.692Z,48.00
2023-03-18T13:43:16.814Z,46.73
2023-03-18T13:45:48.876Z,46.35
2023-03-18T13:48:19.694Z,46.06
2023-03-18T13:50:51.622Z,44.42
2023-03-18T13:53:26.428Z,44.80
2023-03-18T13:56:05.052Z,45.62
2023-03-18T13:58:45.179Z,44.96
2023-03-18T14:01:29.705Z,44.83
2023-03-18T14:04:03.038Z,45.08
2023-03-18T14:06:57.750Z,46.22
2023-03-18T14:09:47.202Z,44.09
2023-03-18T14:12:39.818Z,44.99
2023-03-18T14:15:38.780Z,45.58
2023-03-18T14:18:28.009Z,44.38
2023-03-18T14:21:04.595Z,43.08
2023-03-18T14:23:44.197Z,43.05
2023-03-18T14:26:24.508Z,43.10
2023-03-18T14:29:03.443Z,42.42
2023-03-18T14:31:51.895Z,42.14
2023-03-18T14:34:33.873Z,42.57
2023-03-18T14:37:31.301Z,42.63
2023-03-18T14:40:08.844Z,42.29
2023-03-18T14:42:56.672Z,41.73
2023-03-18T14:45:29.171Z,42.44
2023-03-18T14:48:01.573Z,42.51
2023-03-18T14:50:39.275Z,41.77
2023-03-18T14:53:18.092Z,41.94
2023-03-18T14:55:46.613Z,42.30
2023-03-18T14:58:18.239Z,42.37
2023-03-18T15:00:49.646Z,42.70
2023-03-18T15:03:25.526Z,42.94
2023-03-18T15:06:00.370Z,42.65
2023-03-18T15:08:46.675Z,42.18
2023-03-18T15:11:19.320Z,42.25
2023-03-18T15:13:48.156Z,41.88
2023-03-18T15:16:23.033Z,42.63
2023-03-18T15:18:56.194Z,41.81
2023-03-18T15:21:30.172Z,42.32
2023-03-18T15:24:01.906Z,43.27
2023-03-18T15:26:34.342Z,43.33
2023-03-18T15:29:21.893Z,43.68
2023-03-18T15:31:50.932Z,43.94
2023-03-18T15:34:23.307Z,43.74
2023-03-18T15:36:56.943Z,44.10
2023-03-18T15:39:35.606Z,44.35
2023-03-18T15:42:13.236Z,43.67
2023-03-18T15:44:44.077Z,43.33
2023-03-18T15:47:17.611Z,43.32
2023-03-18T15:49:54.414Z,43.35
2023-03-18T15:52:26.713Z,43.50
2023-03-18T15:54:55.582Z,43.81
2023-03-18T15:57:33.134Z,44.15
2023-03-18T16:00:01.793Z,43.98
2023-03-18T16:02:40.377Z,44.07
2023-03-18T16:05:19.082Z,44.52
2023-03-18T16:07:48.091Z,44.48
2023-03-18T16:10:22.227Z,44.49
2023-03-18T16:12:54.647Z,44.37
2023-03-18T16:15:26.322Z,44.20
2023-03-18T16:17:56.815Z,44.36
2023-03-18T16:20:28.832Z,44.65
2023-03-18T16:22:59.711Z,44.69
2023-03-18T16:25:29.052Z,44.94
2023-03-18T16:28:00.704Z,45.09
2023-03-18T16:30:33.128Z,45.33
2023-03-18T16:33:01.475Z,45.21
2023-03-18T16:35:36.073Z,45.64
2023-03-18T16:38:04.558Z,45.26
2023-03-18T16:40:33.777Z,45.50
2023-03-18T16:43:02.222Z,45.70
2023-03-18T16:45:33.838Z,45.47
2023-03-18T16:48:06.918Z,45.36
2023-03-18T16:50:39.315Z,45.73
2023-03-18T16:53:17.351Z,45.68
2023-03-18T16:55:47.051Z,45.71
2023-03-18T16:58:19.520Z,46.00
2023-03-18T17:00:49.713Z,45.83
2023-03-18T17:03:20.139Z,46.03
2023-03-18T17:05:52.043Z,46.52
2023-03-18T17:08:21.885Z,46.26
2023-03-18T17:10:53.667Z,46.13
2023-03-18T17:13:25.928Z,46.56
2023-03-18T17:15:55.027Z,46.88
2023-03-18T17:18:25.466Z,46.91
2023-03-18T17:20:55.332Z,46.99
2023-03-18T17:23:26.765Z,47.14
2023-03-18T17:25:56.913Z,47.43
2023-03-18T17:28:34.450Z,47.66
2023-03-18T17:31:03.402Z,47.95
2023-03-18T17:33:34.616Z,48.41
2023-03-18T17:36:06.079Z,48.94
2023-03-18T17:38:35.455Z,48.88
2023-03-18T17:41:07.289Z,49.32
2023-03-18T17:43:37.878Z,49.69
2023-03-18T17:46:06.992Z,49.99
2023-03-18T17:48:37.389Z,49.94
2023-03-18T17:51:11.989Z,50.46
2023-03-18T17:53:43.075Z,50.63
2023-03-18T17:56:15.737Z,50.85
2023-03-18T17:58:46.752Z,51.21
2023-03-18T18:01:18.299Z,51.36
2023-03-18T18:03:47.584Z,51.41
2023-03-18T18:06:21.844Z,52.22
2023-03-18T18:08:50.915Z,51.95
2023-03-18T18:11:22.846Z,52.39
2023-03-18T18:13:53.060Z,52.38
2023-03-18T18:16:21.937Z,52.74
2023-03-18T18:18:50.840Z,52.94
2023-03-18T18:21:23.585Z,53.41
2023-03-18T18:23:52.369Z,53.67
2023-03-18T18:26:22.940Z,53.80
2023-03-18T18:28:53.868Z,54.10
2023-03-18T18:31:23.827Z,54.32
2023-03-18T18:33:54.781Z,54.58
2023-03-18T18:36:27.973Z,54.91
2023-03-18T18:38:56.831Z,55.09
2023-03-18T18:41:25.902Z,55.29
2023-03-18T18:43:55.512Z,55.43
2023-03-18T18:46:24.993Z,55.58
2023-03-18T18:48:53.887Z,55.86
2023-03-18T18:51:25.531Z,56.18
2023-03-18T18:53:55.685Z,56.20
2023-03-18T18:56:32.132Z,56.61
2023-03-18T18:59:01.417Z,56.86
2023-03-18T19:01:30.955Z,57.09
2023-03-18T19:03:59.290Z,57.19
2023-03-18T19:06:31.548Z,57.63
2023-03-18T19:09:03.876Z,57.87
2023-03-18T19:11:33.314Z,57.88
2023-03-18T19:14:21.884Z,58.36
2023-03-18T19:16:50.493Z,58.18
2023-03-18T19:19:22.074Z,58.55
2023-03-18T19:21:51.829Z,58.65
2023-03-18T19:24:28.029Z,59.10
2023-03-18T19:26:58.507Z,59.35
2023-03-18T19:29:27.568Z,59.55
2023-03-18T19:31:56.191Z,59.87
2023-03-18T19:34:24.887Z,59.96
2023-03-18T19:36:56.664Z,60.25
2023-03-18T19:39:27.676Z,60.29
2023-03-18T19:41:56.230Z,60.46
2023-03-18T19:44:26.681Z,60.86
2023-03-18T19:46:58.437Z,61.00
2023-03-18T19:49:32.695Z,61.34
2023-03-18T19:52:03.661Z,61.52
2023-03-18T19:54:34.798Z,61.63
2023-03-18T19:57:06.712Z,61.82
2023-03-18T19:59:39.670Z,61.98
2023-03-18T20:02:23.393Z,62.39
2023-03-18T20:04:53.340Z,62.28
2023-03-18T20:07:25.594Z,62.50
2023-03-18T20:09:55.101Z,62.42
2023-03-18T20:12:27.173Z,62.66
2023-03-18T20:14:55.732Z,62.83
2023-03-18T20:17:37.184Z,62.97
2023-03-18T20:20:07.739Z,63.00
2023-03-18T20:22:41.755Z,63.16
2023-03-18T20:25:19.978Z,63.28
2023-03-18T20:27:50.486Z,63.33
2023-03-18T20:30:31.580Z,63.83
2023-03-18T20:33:03.995Z,63.62
2023-03-18T20:35:34.672Z,63.89
2023-03-18T20:38:14.162Z,64.05
2023-03-18T20:40:46.217Z,64.03
2023-03-18T20:43:16.605Z,63.97
2023-03-18T20:45:45.530Z,63.90
2023-03-18T20:48:14.248Z,63.89
2023-03-18T20:50:42.922Z,63.99
2023-03-18T20:53:18.684Z,64.19
2023-03-18T20:55:47.459Z,64.31
2023-03-18T20:58:18.030Z,64.29
2023-03-18T21:00:47.535Z,64.52
2023-03-18T21:03:24.385Z,64.68
2023-03-18T21:05:56.065Z,64.65
2023-03-18T21:08:27.114Z,64.83
2023-03-18T21:10:56.044Z,64.83
2023-03-18T21:13:29.007Z,64.92
2023-03-18T21:15:58.965Z,65.16
2023-03-18T21:18:27.653Z,65.26
2023-03-18T21:20:56.947Z,65.52
2023-03-18T21:23:28.535Z,65.65
2023-03-18T21:25:57.717Z,65.74
2023-03-18T21:28:28.345Z,65.76
2023-03-18T21:30:58.519Z,65.94
2023-03-18T21:33:29.886Z,65.88
2023-03-18T21:35:58.882Z,66.06
2023-03-18T21:38:31.545Z,66.39
2023-03-18T21:41:01.925Z,66.63
2023-03-18T21:43:34.029Z,66.87
2023-03-18T21:46:03.931Z,67.11
2023-03-18T21:48:32.627Z,67.22
2023-03-18T21:51:01.358Z,67.41
2023-03-18T21:53:31.128Z,67.57
2023-03-18T21:56:00.129Z,67.51
2023-03-18T21:58:29.277Z,67.29
2023-03-18T22:01:00.627Z,67.37
2023-03-18T22:03:31.475Z,67.21
2023-03-18T22:06:00.019Z,67.20
2023-03-18T22:08:28.322Z,67.15
2023-03-18T22:10:58.042Z,67.41
2023-03-18T22:13:27.902Z,67.13
2023-03-18T22:15:57.650Z,67.03
2023-03-18T22:18:26.353Z,67.17
2023-03-18T22:20:54.802Z,67.20
2023-03-18T22:23:25.326Z,67.19
2023-03-18T22:25:57.448Z,67.39
2023-03-18T22:28:28.025Z,67.47
2023-03-18T22:30:57.037Z,67.75
2023-03-18T22:33:29.062Z,67.92
2023-03-18T22:35:58.165Z,68.02
2023-03-18T22:38:27.676Z,68.40
2023-03-18T22:40:58.722Z,68.35
2023-03-18T22:43:33.373Z,68.50
2023-03-18T22:46:04.286Z,68.39
2023-03-18T22:48:33.242Z,68.50
2023-03-18T22:51:02.608Z,68.42
2023-03-18T22:53:33.846Z,68.58
2023-03-18T22:56:10.047Z,68.93
2023-03-18T22:58:39.387Z,68.87
2023-03-18T23:01:08.203Z,69.16
2023-03-18T23:03:40.335Z,69.13
2023-03-18T23:06:14.523Z,69.23
2023-03-18T23:08:43.249Z,69.23
2023-03-18T23:11:13.348Z,69.43
2023-03-18T23:13:43.582Z,69.33
2023-03-18T23:16:17.024Z,69.53
2023-03-18T23:18:45.941Z,69.53
2023-03-18T23:21:18.140Z,69.69
2023-03-18T23:23:46.550Z,69.73
2023-03-18T23:26:16.839Z,70.13
2023-03-18T23:28:45.844Z,69.79
2023-03-18T23:31:16.514Z,69.95
2023-03-18T23:33:45.750Z,69.98
2023-03-18T23:36:14.456Z,70.14
2023-03-18T23:38:43.072Z,69.96
2023-03-18T23:41:11.640Z,70.08
2023-03-18T23:43:41.327Z,70.46
2023-03-18T23:46:09.865Z,70.54
2023-03-18T23:48:38.400Z,70.66
2023-03-18T23:51:07.057Z,70.78
2023-03-18T23:53:35.787Z,70.80
2023-03-18T23:56:04.429Z,70.93
2023-03-18T23:58:32.930Z,70.85
